Time;durP1;ratioP1;P1;durP2;ratioP2;P2;SDS_P1;SDS_P2;PMS_P1;PMS_P2;Temp;Humidity;BMP_temperature;BMP_pressure;BME280_temperature;BME280_humidity;BME280_pressure;Samples;Min_cycle;Max_cycle;Signal;HPM_P1;HPM_P2
2024/04/09 00:00:32;;;;;;;10.88;2.97;;;18.10;54.10;;;;;;5298291;26;19993;-62
2024/04/09 00:02:57;;;;;;;12.38;2.55;;;18.20;54.20;;;;;;5317154;26;20001;-62
2024/04/09 00:05:27;;;;;;;9.55;2.50;;;18.20;54.00;;;;;;5328434;26;20345;-64
2024/04/09 00:07:52;;;;;;;12.57;2.50;;;18.20;53.80;;;;;;5339121;26;19997;-62
2024/04/09 00:10:19;;;;;;;16.55;3.47;;;18.10;53.80;;;;;;5331283;26;20007;-62
2024/04/09 00:12:46;;;;;;;12.88;2.88;;;18.10;54.00;;;;;;5335804;26;20463;-62
2024/04/09 00:15:12;;;;;;;12.45;2.40;;;18.10;54.00;;;;;;5335308;26;20037;-62
2024/04/09 00:17:56;;;;;;;12.73;2.58;;;18.00;54.00;;;;;;5338072;26;20527;-63
2024/04/09 00:20:24;;;;;;;8.57;2.40;;;18.00;54.50;;;;;;5329442;26;19993;-62
2024/04/09 00:22:58;;;;;;;11.15;2.95;;;17.90;54.80;;;;;;5333899;26;20223;-63
2024/04/09 00:25:24;;;;;;;15.97;3.10;;;17.90;54.80;;;;;;5330571;26;19997;-63
2024/04/09 00:27:52;;;;;;;13.98;2.97;;;17.80;54.70;;;;;;5335204;26;20333;-64
2024/04/09 00:30:18;;;;;;;8.43;2.83;;;17.80;55.00;;;;;;5335002;26;20001;-63
2024/04/09 00:32:45;;;;;;;7.00;2.53;;;17.80;55.90;;;;;;5335830;26;20002;-63
2024/04/09 00:35:11;;;;;;;8.32;2.53;;;17.70;55.20;;;;;;5337101;26;19993;-61
2024/04/09 00:37:39;;;;;;;9.10;2.55;;;17.70;55.10;;;;;;5303875;26;20357;-63
2024/04/09 00:40:09;;;;;;;8.32;2.38;;;17.60;55.20;;;;;;5298119;26;19998;-62
2024/04/09 00:42:36;;;;;;;8.55;2.63;;;17.60;55.20;;;;;;5297775;26;20001;-62
2024/04/09 00:45:05;;;;;;;10.60;2.97;;;17.60;55.30;;;;;;5294319;26;20480;-63
2024/04/09 00:47:34;;;;;;;9.50;2.30;;;17.50;55.20;;;;;;5299960;26;20110;-62
2024/04/09 00:50:04;;;;;;;8.85;2.40;;;17.40;55.30;;;;;;5305153;26;19993;-64
2024/04/09 00:52:33;;;;;;;11.55;2.70;;;17.40;54.90;;;;;;5305790;26;19998;-62
2024/04/09 00:55:03;;;;;;;6.70;2.38;;;17.30;55.00;;;;;;5298305;26;20473;-65
2024/04/09 00:57:29;;;;;;;6.82;2.05;;;17.20;55.10;;;;;;5298251;26;20037;-63
2024/04/09 00:59:56;;;;;;;9.40;2.72;;;17.10;55.20;;;;;;5301103;26;20006;-64
2024/04/09 01:02:23;;;;;;;7.72;2.60;;;17.10;55.50;;;;;;5299631;26;19998;-65
2024/04/09 01:04:52;;;;;;;13.13;2.97;;;17.10;55.10;;;;;;5298807;26;20013;-65
2024/04/09 01:07:18;;;;;;;7.93;2.30;;;17.00;54.80;;;;;;5303158;26;20027;-65
2024/04/09 01:09:45;;;;;;;9.15;2.53;;;17.00;55.50;;;;;;5302544;26;19994;-64
2024/04/09 01:12:10;;;;;;;10.98;2.35;;;17.00;54.80;;;;;;5301006;26;20158;-62
2024/04/09 01:14:36;;;;;;;7.22;2.00;;;17.00;54.30;;;;;;5302810;26;20474;-64
2024/04/09 01:17:03;;;;;;;5.85;1.92;;;17.00;53.80;;;;;;5305105;26;20324;-64
2024/04/09 01:19:28;;;;;;;5.10;1.42;;;17.00;53.30;;;;;;5302553;26;20381;-64
2024/04/09 01:21:54;;;;;;;8.90;1.60;;;17.10;53.50;;;;;;5302170;26;19994;-64
2024/04/09 01:24:21;;;;;;;6.28;1.58;;;17.10;52.50;;;;;;5289938;26;20002;-64
2024/04/09 01:26:49;;;;;;;6.03;1.10;;;17.10;52.10;;;;;;5304302;26;19993;-64
2024/04/09 01:29:15;;;;;;;5.95;1.33;;;17.20;52.00;;;;;;5299427;26;20063;-63
2024/04/09 01:31:41;;;;;;;7.22;1.23;;;17.30;51.60;;;;;;5300394;26;20001;-64
2024/04/09 01:34:09;;;;;;;4.93;1.40;;;17.30;51.70;;;;;;5301899;26;20007;-65
2024/04/09 01:36:35;;;;;;;4.93;1.42;;;17.40;51.70;;;;;;5300527;26;20458;-64
2024/04/09 01:39:01;;;;;;;6.45;1.23;;;17.40;51.60;;;;;;5300588;26;20071;-64
2024/04/09 01:41:27;;;;;;;6.05;1.30;;;17.50;51.40;;;;;;5298793;26;20021;-63
2024/04/09 01:43:52;;;;;;;3.10;1.17;;;17.50;51.00;;;;;;5297834;26;20030;-64
2024/04/09 01:46:18;;;;;;;3.20;1.20;;;17.50;50.30;;;;;;5295755;26;19998;-63
2024/04/09 01:48:44;;;;;;;3.85;1.40;;;17.60;49.90;;;;;;5296418;26;20016;-64
2024/04/09 01:51:11;;;;;;;6.68;1.42;;;17.70;49.70;;;;;;5297871;26;20458;-63
2024/04/09 01:53:37;;;;;;;4.40;1.13;;;17.80;49.20;;;;;;5299515;26;20017;-64
2024/04/09 01:56:02;;;;;;;3.53;1.20;;;17.90;49.00;;;;;;5303130;26;20079;-64
2024/04/09 01:58:29;;;;;;;6.63;1.25;;;18.10;48.60;;;;;;5303777;26;20107;-65
2024/04/09 02:00:54;;;;;;;5.40;1.63;;;18.20;48.20;;;;;;5296463;26;20001;-64
2024/04/09 02:03:20;;;;;;;7.40;1.48;;;18.30;47.80;;;;;;5301829;26;20334;-64
2024/04/09 02:05:46;;;;;;;6.43;1.40;;;18.40;47.70;;;;;;5296430;26;20397;-64
2024/04/09 02:08:12;;;;;;;6.53;1.67;;;18.60;47.30;;;;;;5299095;26;20012;-64
2024/04/09 02:10:37;;;;;;;5.88;1.40;;;18.70;47.00;;;;;;5292150;26;20017;-64
2024/04/09 02:13:03;;;;;;;9.00;1.30;;;18.70;46.50;;;;;;5292805;26;20071;-63
2024/04/09 02:15:29;;;;;;;7.75;1.17;;;18.90;46.20;;;;;;5294791;26;20017;-64
2024/04/09 02:17:55;;;;;;;4.70;1.20;;;19.00;46.00;;;;;;5295294;26;20357;-61
2024/04/09 02:20:23;;;;;;;8.32;1.42;;;19.10;46.00;;;;;;5301426;26;20014;-64
2024/04/09 02:22:49;;;;;;;4.47;1.17;;;19.20;46.00;;;;;;5293707;26;20009;-64
2024/04/09 02:25:15;;;;;;;3.80;1.27;;;19.30;45.90;;;;;;5300081;26;20016;-64
2024/04/09 02:27:40;;;;;;;8.68;1.30;;;19.40;46.00;;;;;;5303681;26;20001;-64
2024/04/09 02:30:09;;;;;;;5.60;1.27;;;19.40;46.00;;;;;;5299805;26;20016;-64
2024/04/09 02:32:36;;;;;;;7.40;1.52;;;19.50;45.70;;;;;;5299218;26;19998;-63
2024/04/09 02:35:04;;;;;;;8.43;1.52;;;19.50;46.30;;;;;;5295377;26;20003;-64
2024/04/09 02:37:31;;;;;;;3.15;1.17;;;19.50;45.70;;;;;;5303512;26;20555;-65
2024/04/09 02:39:58;;;;;;;6.25;1.30;;;19.50;45.70;;;;;;5301010;26;20009;-65
2024/04/09 02:42:27;;;;;;;5.30;1.50;;;19.50;45.70;;;;;;5305731;26;19997;-64
2024/04/09 02:44:52;;;;;;;5.70;1.67;;;19.50;45.40;;;;;;5298224;26;19998;-64
2024/04/09 02:47:18;;;;;;;6.25;1.30;;;19.40;45.30;;;;;;5296170;26;20010;-64
2024/04/09 02:49:44;;;;;;;6.63;1.48;;;19.40;45.00;;;;;;5299071;26;20013;-65
2024/04/09 02:52:11;;;;;;;8.50;1.60;;;19.40;45.30;;;;;;5296562;26;20002;-65
2024/04/09 02:54:39;;;;;;;7.55;1.52;;;19.40;45.30;;;;;;5299186;26;20001;-65
2024/04/09 02:57:05;;;;;;;10.48;1.80;;;19.30;45.20;;;;;;5301903;26;19997;-64
2024/04/09 02:59:31;;;;;;;3.60;1.30;;;19.30;45.40;;;;;;5296091;26;20353;-65
2024/04/09 03:01:56;;;;;;;7.47;2.08;;;19.30;45.80;;;;;;5297714;26;19998;-64
2024/04/09 03:04:22;;;;;;;9.95;2.03;;;19.20;46.90;;;;;;5302286;26;20001;-65
2024/04/09 03:06:47;;;;;;;11.77;2.20;;;19.10;47.10;;;;;;5299575;26;20001;-64
2024/04/09 03:09:13;;;;;;;9.05;2.38;;;19.10;47.50;;;;;;5299019;26;20009;-64
2024/04/09 03:11:39;;;;;;;11.35;2.38;;;19.00;47.70;;;;;;5293368;26;20075;-65
2024/04/09 03:14:10;;;;;;;15.73;2.38;;;18.90;47.90;;;;;;5302355;26;19997;-64
2024/04/09 03:16:36;;;;;;;10.15;3.05;;;18.80;47.70;;;;;;5299060;26;20076;-65
2024/04/09 03:19:03;;;;;;;6.82;2.10;;;18.80;47.60;;;;;;5302851;26;20006;-64
2024/04/09 03:21:29;;;;;;;8.02;1.98;;;18.70;47.30;;;;;;5300161;26;19995;-64
2024/04/09 03:23:55;;;;;;;8.43;1.92;;;18.60;47.70;;;;;;5298420;26;20427;-64
2024/04/09 03:26:21;;;;;;;7.18;1.63;;;18.50;48.10;;;;;;5295383;26;20002;-64
2024/04/09 03:28:46;;;;;;;11.30;1.55;;;18.50;48.20;;;;;;5294753;26;19998;-64
2024/04/09 03:31:12;;;;;;;6.05;2.00;;;18.40;48.80;;;;;;5292963;26;20357;-64
2024/04/09 03:33:38;;;;;;;11.60;1.55;;;18.40;48.70;;;;;;5301312;26;20010;-65
2024/04/09 03:36:06;;;;;;;11.88;1.92;;;18.30;48.80;;;;;;5298129;26;19993;-65
2024/04/09 03:38:31;;;;;;;11.48;2.35;;;18.20;48.60;;;;;;5290726;27;20014;-65
2024/04/09 03:41:02;;;;;;;10.60;2.70;;;18.10;48.70;;;;;;5295629;26;20078;-65
2024/04/09 03:43:28;;;;;;;8.93;2.05;;;18.10;49.00;;;;;;5303787;26;20071;-64
2024/04/09 03:46:14;;;;;;;12.05;2.30;;;18.00;49.10;;;;;;5301461;26;20029;-64
2024/04/09 03:48:44;;;;;;;7.72;2.10;;;17.90;49.80;;;;;;5296137;26;20029;-65
2024/04/09 03:51:10;;;;;;;7.00;1.85;;;17.80;49.60;;;;;;5306163;26;20013;-65
2024/04/09 03:53:37;;;;;;;7.47;1.90;;;17.80;49.60;;;;;;5298697;26;19994;-64
2024/04/09 03:56:04;;;;;;;12.48;2.92;;;17.70;49.60;;;;;;5301730;26;21152;-65
2024/04/09 03:58:49;;;;;;;9.57;2.42;;;17.60;49.60;;;;;;5292017;26;19998;-65
2024/04/09 04:01:16;;;;;;;12.25;2.33;;;17.50;49.90;;;;;;5290987;26;20009;-65
2024/04/09 04:03:45;;;;;;;4.03;1.95;;;17.50;50.00;;;;;;5297563;26;20016;-64
2024/04/09 04:06:11;;;;;;;9.50;2.13;;;17.50;50.70;;;;;;5291211;26;20002;-65
2024/04/09 04:08:38;;;;;;;7.28;1.67;;;17.50;50.80;;;;;;5302515;26;20071;-64
2024/04/09 04:11:09;;;;;;;4.80;1.67;;;17.40;50.40;;;;;;5305687;26;20475;-65
2024/04/09 04:13:36;;;;;;;7.03;1.67;;;17.30;50.60;;;;;;5298434;26;19997;-65
2024/04/09 04:16:12;;;;;;;8.55;1.85;;;17.30;50.90;;;;;;5297009;26;20015;-64
2024/04/09 04:18:40;;;;;;;6.38;1.85;;;17.20;50.90;;;;;;5293628;26;20034;-65
2024/04/09 04:21:07;;;;;;;4.57;1.70;;;17.20;51.30;;;;;;5294020;26;20012;-65
2024/04/09 04:23:33;;;;;;;6.05;1.70;;;17.10;51.70;;;;;;5298399;26;20010;-65
2024/04/09 04:26:02;;;;;;;9.23;1.80;;;17.10;51.90;;;;;;5306393;26;20084;-65
2024/04/09 04:28:31;;;;;;;13.43;2.20;;;17.10;51.90;;;;;;5303132;26;20520;-65
2024/04/09 04:30:57;;;;;;;6.38;2.00;;;17.00;52.00;;;;;;5303787;26;20081;-65
2024/04/09 04:33:23;;;;;;;9.07;2.10;;;17.00;52.50;;;;;;5304685;26;20339;-65
2024/04/09 04:35:50;;;;;;;7.25;1.80;;;16.90;52.50;;;;;;5303641;26;20016;-64
2024/04/09 04:38:15;;;;;;;7.28;1.85;;;16.80;52.20;;;;;;5302215;26;20022;-64
2024/04/09 04:40:41;;;;;;;5.38;2.17;;;16.80;52.30;;;;;;5303596;26;20075;-65
2024/04/09 04:43:07;;;;;;;10.25;2.88;;;16.80;52.60;;;;;;5306008;26;19997;-65
2024/04/09 04:45:32;;;;;;;10.93;3.22;;;16.70;52.90;;;;;;5301227;26;20002;-64
2024/04/09 04:47:58;;;;;;;11.55;4.95;;;16.60;53.20;;;;;;5302833;26;20078;-64
2024/04/09 04:50:24;;;;;;;18.58;8.90;;;16.50;53.50;;;;;;5306183;26;20013;-65
2024/04/09 04:52:49;;;;;;;22.42;13.25;;;16.50;54.00;;;;;;5304399;26;20127;-64
2024/04/09 04:55:15;;;;;;;23.02;12.57;;;16.50;54.40;;;;;;5302531;26;19998;-65
2024/04/09 04:57:41;;;;;;;28.48;13.38;;;16.50;54.30;;;;;;5304512;26;19998;-65
2024/04/09 05:00:09;;;;;;;26.00;13.05;;;16.40;54.30;;;;;;5302302;26;20002;-64
2024/04/09 05:02:39;;;;;;;26.60;11.23;;;16.40;54.60;;;;;;5303534;26;20015;-64
2024/04/09 05:05:04;;;;;;;19.27;7.38;;;16.30;54.60;;;;;;5298954;26;19997;-62
2024/04/09 05:07:31;;;;;;;11.73;5.32;;;16.30;54.60;;;;;;5304674;26;20009;-64
2024/04/09 05:09:57;;;;;;;10.98;4.47;;;16.30;54.70;;;;;;5302532;26;20003;-63
2024/04/09 05:12:22;;;;;;;12.13;3.80;;;16.30;55.00;;;;;;5304972;26;20001;-63
2024/04/09 05:14:49;;;;;;;12.55;3.40;;;16.20;55.10;;;;;;5302631;26;20563;-63
2024/04/09 05:17:14;;;;;;;8.82;3.10;;;16.20;55.40;;;;;;5304715;26;20475;-63
2024/04/09 05:19:40;;;;;;;10.23;3.20;;;16.10;55.70;;;;;;5305097;26;20010;-64
2024/04/09 05:22:05;;;;;;;15.55;3.47;;;16.10;56.00;;;;;;5303572;26;19994;-64
2024/04/09 05:24:33;;;;;;;11.48;3.40;;;16.10;55.80;;;;;;5305549;26;20001;-64
2024/04/09 05:26:59;;;;;;;12.38;3.40;;;16.10;55.90;;;;;;5303511;26;19994;-63
2024/04/09 05:29:25;;;;;;;13.13;3.15;;;16.00;56.10;;;;;;5302858;26;20012;-63
2024/04/09 05:31:50;;;;;;;11.45;2.70;;;16.00;56.50;;;;;;5301021;26;20013;-64
2024/04/09 05:34:16;;;;;;;11.02;2.78;;;15.90;56.50;;;;;;5303806;26;20002;-64
2024/04/09 05:36:43;;;;;;;11.15;2.83;;;15.90;56.50;;;;;;5302970;26;20045;-63
2024/04/09 05:39:09;;;;;;;8.95;2.97;;;15.80;56.60;;;;;;5305448;26;20009;-64
2024/04/09 05:41:35;;;;;;;10.13;2.50;;;15.80;57.00;;;;;;5308123;26;20030;-63
2024/04/09 05:44:01;;;;;;;12.80;2.90;;;15.80;57.10;;;;;;5332749;26;20001;-65
2024/04/09 05:46:27;;;;;;;16.67;3.20;;;15.80;57.40;;;;;;5338584;26;20004;-64
2024/04/09 05:48:52;;;;;;;12.57;3.35;;;15.90;57.90;;;;;;5339713;26;19997;-64
2024/04/09 05:51:18;;;;;;;14.82;3.65;;;15.80;58.00;;;;;;5337719;26;19997;-63
2024/04/09 05:53:43;;;;;;;15.82;3.25;;;15.80;57.80;;;;;;5340372;26;20048;-64
2024/04/09 05:56:09;;;;;;;13.93;3.35;;;15.80;57.70;;;;;;5339838;26;19997;-64
2024/04/09 05:58:34;;;;;;;17.30;3.25;;;15.80;57.40;;;;;;5339911;26;19993;-64
2024/04/09 06:01:00;;;;;;;13.57;2.97;;;15.80;57.40;;;;;;5338814;26;20009;-64
2024/04/09 06:03:27;;;;;;;10.65;2.60;;;15.80;57.80;;;;;;5331901;26;20008;-64
2024/04/09 06:05:55;;;;;;;13.45;2.75;;;15.80;57.90;;;;;;5305586;26;20002;-65
2024/04/09 06:08:21;;;;;;;19.92;3.35;;;15.80;58.50;;;;;;5304967;26;20390;-63
2024/04/09 06:10:47;;;;;;;16.05;3.60;;;15.80;57.40;;;;;;5305241;26;20020;-64
2024/04/09 06:13:13;;;;;;;11.75;2.83;;;15.80;57.10;;;;;;5303327;26;20014;-64
2024/04/09 06:15:38;;;;;;;11.38;3.42;;;15.80;57.30;;;;;;5304693;26;20097;-63
2024/04/09 06:18:04;;;;;;;14.57;3.70;;;15.80;57.90;;;;;;5301635;26;20104;-63
2024/04/09 06:20:30;;;;;;;51.67;6.78;;;15.90;58.30;;;;;;5305338;26;20013;-64
2024/04/09 06:22:56;;;;;;;61.95;5.05;;;15.90;58.20;;;;;;5303949;26;20006;-64
2024/04/09 06:25:21;;;;;;;48.45;5.30;;;15.90;58.30;;;;;;5301921;26;20034;-63
2024/04/09 06:27:49;;;;;;;38.15;4.68;;;15.90;58.10;;;;;;5303456;26;20304;-64
2024/04/09 06:30:14;;;;;;;31.70;3.88;;;16.00;57.90;;;;;;5302733;26;20153;-64
2024/04/09 06:32:40;;;;;;;22.88;3.85;;;16.00;57.80;;;;;;5303823;26;20075;-63
2024/04/09 06:35:06;;;;;;;24.02;3.53;;;16.00;57.80;;;;;;5305406;26;20021;-63
2024/04/09 06:37:34;;;;;;;31.13;3.88;;;16.10;57.80;;;;;;5300834;26;20020;-64
2024/04/09 06:40:00;;;;;;;25.60;3.40;;;16.10;57.90;;;;;;5303026;26;20075;-63
2024/04/09 06:42:26;;;;;;;29.13;3.88;;;16.20;57.90;;;;;;5303244;26;20009;-65
2024/04/09 06:44:51;;;;;;;39.17;3.92;;;16.20;58.10;;;;;;5305453;26;20720;-63
2024/04/09 06:47:17;;;;;;;36.13;3.85;;;16.30;58.20;;;;;;5302133;26;20002;-63
2024/04/09 06:49:43;;;;;;;35.25;4.00;;;16.40;58.00;;;;;;5301763;26;20528;-63
2024/04/09 06:52:09;;;;;;;47.35;4.35;;;16.40;57.90;;;;;;5304400;26;19998;-62
2024/04/09 06:54:35;;;;;;;52.75;4.55;;;16.50;57.70;;;;;;5303617;26;20668;-63
2024/04/09 06:57:00;;;;;;;31.40;3.90;;;16.60;57.50;;;;;;5304529;26;20030;-64
2024/04/09 06:59:26;;;;;;;21.38;3.50;;;16.60;57.30;;;;;;5300215;26;20001;-64
2024/04/09 07:01:51;;;;;;;21.35;3.30;;;16.80;57.30;;;;;;5299452;26;20002;-64
2024/04/09 07:04:18;;;;;;;23.77;3.20;;;16.80;57.20;;;;;;5303993;26;20075;-64
2024/04/09 07:06:44;;;;;;;24.42;3.28;;;16.90;57.10;;;;;;5301033;26;20071;-64
2024/04/09 07:09:09;;;;;;;24.25;3.20;;;17.00;56.90;;;;;;5303811;26;20004;-63
2024/04/09 07:11:36;;;;;;;30.25;3.20;;;17.20;56.80;;;;;;5301969;26;20001;-64
2024/04/09 07:14:02;;;;;;;33.65;3.60;;;17.20;56.40;;;;;;5303221;26;20016;-62
2024/04/09 07:16:28;;;;;;;24.67;3.47;;;17.40;56.40;;;;;;5299834;26;20005;-62
2024/04/09 07:18:53;;;;;;;41.67;4.03;;;17.50;56.30;;;;;;5303850;26;20022;-63
2024/04/09 07:21:20;;;;;;;31.45;3.53;;;17.60;56.00;;;;;;5301101;26;20451;-64
2024/04/09 07:23:47;;;;;;;34.15;3.97;;;17.70;55.90;;;;;;5303039;26;19994;-62
2024/04/09 07:26:13;;;;;;;22.10;3.40;;;17.80;56.40;;;;;;5300060;26;20350;-63
2024/04/09 07:28:39;;;;;;;23.52;3.55;;;17.90;56.20;;;;;;5303482;26;19994;-62
2024/04/09 07:31:05;;;;;;;21.67;3.13;;;18.00;56.00;;;;;;5296984;26;20002;-64
2024/04/09 07:33:31;;;;;;;27.30;2.85;;;18.10;55.80;;;;;;5302840;26;20021;-64
2024/04/09 07:36:00;;;;;;;21.50;3.40;;;18.20;55.60;;;;;;5301204;26;20353;-63
2024/04/09 07:38:25;;;;;;;21.30;3.40;;;18.30;55.20;;;;;;5304042;26;20009;-64
2024/04/09 07:40:51;;;;;;;29.48;2.95;;;18.40;55.00;;;;;;5300005;26;20017;-63
2024/04/09 07:43:17;;;;;;;23.90;2.97;;;18.40;54.90;;;;;;5303729;26;21489;-63
2024/04/09 07:45:43;;;;;;;16.42;2.95;;;18.50;54.70;;;;;;5301768;26;20477;-63
2024/04/09 07:48:09;;;;;;;20.95;2.83;;;18.60;54.40;;;;;;5302605;26;20009;-61
2024/04/09 07:50:35;;;;;;;18.52;3.00;;;18.60;54.30;;;;;;5301979;26;20002;-63
2024/04/09 07:53:01;;;;;;;19.25;2.80;;;18.70;54.10;;;;;;5303173;26;20005;-64
2024/04/09 07:55:27;;;;;;;23.48;2.92;;;18.70;54.10;;;;;;5298766;26;20029;-64
2024/04/09 07:57:52;;;;;;;25.73;3.75;;;18.80;54.00;;;;;;5300562;26;20002;-64
2024/04/09 08:00:19;;;;;;;32.80;4.43;;;18.80;53.90;;;;;;5300347;26;19998;-64
2024/04/09 08:02:45;;;;;;;34.58;4.53;;;18.80;53.90;;;;;;5298100;26;20024;-64
2024/04/09 08:05:12;;;;;;;31.42;3.67;;;18.90;54.00;;;;;;5302730;26;20382;-62
2024/04/09 08:07:39;;;;;;;27.60;3.42;;;18.90;54.10;;;;;;5303278;26;20002;-64
2024/04/09 08:10:18;;;;;;;28.67;3.80;;;18.90;54.10;;;;;;5303099;26;20006;-63
2024/04/09 08:12:49;;;;;;;25.55;3.45;;;19.00;54.10;;;;;;5298288;26;20014;-63
2024/04/09 08:15:18;;;;;;;36.05;3.60;;;19.00;54.10;;;;;;5299935;26;20002;-64
2024/04/09 08:17:47;;;;;;;20.80;3.35;;;19.10;54.20;;;;;;5303330;26;20006;-63
2024/04/09 08:20:13;;;;;;;19.90;2.85;;;19.10;54.80;;;;;;5301806;26;20029;-63
2024/04/09 08:22:38;;;;;;;19.95;2.53;;;19.20;54.20;;;;;;5300219;26;20437;-61
2024/04/09 08:25:05;;;;;;;16.65;2.70;;;19.20;54.30;;;;;;5302238;26;20473;-64
2024/04/09 08:27:33;;;;;;;23.33;3.03;;;19.30;54.40;;;;;;5299889;26;20030;-64
2024/04/09 08:29:59;;;;;;;19.00;2.70;;;19.30;54.10;;;;;;5302454;26;19994;-63
2024/04/09 08:32:25;;;;;;;16.27;3.38;;;19.20;54.20;;;;;;5307392;26;20377;-64
2024/04/09 08:34:52;;;;;;;26.83;3.08;;;19.30;54.40;;;;;;5302558;26;20005;-63
2024/04/09 08:37:17;;;;;;;20.98;2.78;;;19.30;54.60;;;;;;5303374;26;20002;-63
2024/04/09 08:39:43;;;;;;;15.63;2.83;;;19.30;54.70;;;;;;5303625;26;19998;-64
2024/04/09 08:42:09;;;;;;;19.08;3.22;;;19.30;55.00;;;;;;5304032;26;19993;-63
2024/04/09 08:44:36;;;;;;;24.70;2.97;;;19.40;55.20;;;;;;5302170;26;20013;-64
2024/04/09 08:47:03;;;;;;;24.40;3.38;;;19.40;55.30;;;;;;5302681;27;19998;-63
2024/04/09 08:49:29;;;;;;;24.15;4.03;;;19.50;55.40;;;;;;5302255;26;20357;-64
2024/04/09 08:51:55;;;;;;;23.05;3.88;;;19.50;55.30;;;;;;5305434;26;20002;-64
2024/04/09 08:54:23;;;;;;;21.67;3.03;;;19.60;55.40;;;;;;5303789;26;20008;-64
2024/04/09 08:56:51;;;;;;;21.75;3.35;;;19.60;55.70;;;;;;5304501;26;20006;-63
2024/04/09 08:59:16;;;;;;;17.67;3.20;;;19.60;55.80;;;;;;5301942;26;20001;-61
2024/04/09 09:01:42;;;;;;;20.48;3.28;;;19.70;55.90;;;;;;5302321;26;20520;-63
2024/04/09 09:04:07;;;;;;;23.55;3.45;;;19.70;56.10;;;;;;5304897;26;20116;-64
2024/04/09 09:06:46;;;;;;;22.35;2.63;;;19.80;56.00;;;;;;5302845;26;20026;-64
2024/04/09 09:09:29;;;;;;;19.05;3.15;;;19.80;55.80;;;;;;5304128;26;19993;-63
2024/04/09 09:12:03;;;;;;;14.77;2.30;;;19.90;55.70;;;;;;5303580;26;20450;-63
2024/04/09 09:14:29;;;;;;;22.42;3.03;;;19.90;55.80;;;;;;5305295;26;19998;-64
2024/04/09 09:17:11;;;;;;;23.38;2.65;;;19.90;55.70;;;;;;5301878;26;20016;-63
2024/04/09 09:19:36;;;;;;;14.93;2.50;;;19.90;56.00;;;;;;5296294;26;20588;-65
2024/04/09 09:22:07;;;;;;;16.20;2.40;;;20.00;55.70;;;;;;5294675;26;20019;-63
2024/04/09 09:24:34;;;;;;;16.58;2.50;;;20.00;55.50;;;;;;5302477;26;19994;-63
2024/04/09 09:27:00;;;;;;;23.40;2.88;;;20.00;56.40;;;;;;5304721;26;20075;-64
2024/04/09 09:29:26;;;;;;;17.67;2.65;;;20.10;56.00;;;;;;5302745;26;20013;-64
2024/04/09 09:31:52;;;;;;;17.13;2.33;;;20.10;56.00;;;;;;5304551;26;20010;-63
2024/04/09 09:34:21;;;;;;;17.15;2.40;;;20.20;56.00;;;;;;5305783;26;20001;-64
2024/04/09 09:36:50;;;;;;;17.83;2.22;;;20.30;55.90;;;;;;5305061;26;20002;-65
2024/04/09 09:39:16;;;;;;;31.30;2.17;;;20.30;56.00;;;;;;5304553;26;20076;-61
2024/04/09 09:41:43;;;;;;;7.40;0.90;;;20.30;56.60;;;;;;5299255;26;20005;-64
2024/04/09 09:44:10;;;;;;;2.78;0.57;;;20.10;56.50;;;;;;5303887;26;20001;-63
2024/04/09 09:46:36;;;;;;;6.05;0.50;;;19.90;56.60;;;;;;5302831;26;20020;-64
2024/04/09 09:49:03;;;;;;;1.65;0.35;;;19.50;56.80;;;;;;5302593;26;19998;-64
2024/04/09 09:51:29;;;;;;;3.50;0.38;;;19.00;57.10;;;;;;5307356;26;20030;-61
2024/04/09 09:53:56;;;;;;;9.98;0.57;;;18.60;57.60;;;;;;5305701;26;19993;-62
2024/04/09 09:56:24;;;;;;;5.13;0.45;;;18.20;58.50;;;;;;5301983;26;20002;-64
2024/04/09 09:58:52;;;;;;;0.82;0.30;;;17.80;59.00;;;;;;5304524;26;20390;-63
2024/04/09 10:01:19;;;;;;;2.65;0.20;;;17.40;59.50;;;;;;5304143;26;20010;-63
2024/04/09 10:03:45;;;;;;;0.90;0.30;;;17.10;60.10;;;;;;5302045;26;20012;-63
2024/04/09 10:06:11;;;;;;;2.05;0.20;;;16.70;60.60;;;;;;5301471;26;19994;-62
2024/04/09 10:08:41;;;;;;;1.95;0.20;;;16.40;61.40;;;;;;5304199;26;20009;-62
2024/04/09 10:11:07;;;;;;;4.07;0.35;;;16.10;62.10;;;;;;5304832;26;20509;-63
2024/04/09 10:13:33;;;;;;;2.20;0.25;;;15.80;62.60;;;;;;5304246;26;20381;-62
2024/04/09 10:16:01;;;;;;;1.42;0.20;;;15.60;63.40;;;;;;5299763;26;20010;-63
2024/04/09 10:18:37;;;;;;;6.32;0.30;;;15.50;64.30;;;;;;5301972;26;20002;-63
2024/04/09 10:21:04;;;;;;;0.40;0.20;;;15.30;63.80;;;;;;5299424;26;20005;-63
2024/04/09 10:23:37;;;;;;;0.77;0.20;;;15.20;64.10;;;;;;5303121;26;20024;-63
2024/04/09 10:26:05;;;;;;;0.52;0.10;;;15.10;64.60;;;;;;5303636;26;19997;-64
2024/04/09 10:28:33;;;;;;;1.35;0.20;;;14.90;64.60;;;;;;5304379;26;20346;-63
2024/04/09 10:31:08;;;;;;;0.43;0.20;;;14.80;64.90;;;;;;5299785;26;20045;-63
2024/04/09 10:33:36;;;;;;;3.05;0.10;;;14.70;65.50;;;;;;5301713;26;20022;-63
2024/04/09 10:36:06;;;;;;;0.55;0.10;;;14.60;65.40;;;;;;5291371;26;20009;-64
2024/04/09 10:38:33;;;;;;;0.85;0.10;;;14.50;66.30;;;;;;5304727;26;19998;-64
2024/04/09 10:41:02;;;;;;;1.10;0.20;;;14.50;66.00;;;;;;5300077;26;20427;-62
2024/04/09 10:43:29;;;;;;;1.42;0.20;;;14.40;66.20;;;;;;5299171;26;19994;-61
2024/04/09 10:45:58;;;;;;;0.60;0.20;;;14.40;66.20;;;;;;5303319;26;20010;-63
2024/04/09 10:48:24;;;;;;;0.40;0.10;;;14.40;66.40;;;;;;5303647;26;20005;-63
2024/04/09 10:50:50;;;;;;;0.95;0.10;;;14.40;66.40;;;;;;5325947;26;20029;-63
2024/04/09 10:53:17;;;;;;;0.75;0.32;;;14.40;66.60;;;;;;5301556;26;20049;-64
2024/04/09 10:55:42;;;;;;;0.35;0.20;;;14.30;66.40;;;;;;5298860;26;19997;-62
2024/04/09 10:58:14;;;;;;;1.38;0.10;;;14.30;66.40;;;;;;5304361;26;20002;-63
2024/04/09 11:00:43;;;;;;;1.58;0.20;;;14.30;66.90;;;;;;5300463;26;20015;-63
2024/04/09 11:03:09;;;;;;;1.35;0.30;;;14.20;66.60;;;;;;5302411;26;20392;-62
2024/04/09 11:05:35;;;;;;;0.95;0.20;;;14.20;66.70;;;;;;5295599;26;19997;-62
2024/04/09 11:08:01;;;;;;;0.90;0.20;;;14.10;66.70;;;;;;5303686;26;20002;-63
2024/04/09 11:10:28;;;;;;;0.13;0.10;;;14.10;66.70;;;;;;5301893;26;20736;-63
2024/04/09 11:12:54;;;;;;;0.80;0.10;;;14.10;66.60;;;;;;5304088;26;20009;-64
2024/04/09 11:15:20;;;;;;;0.63;0.10;;;14.10;66.60;;;;;;5300120;26;20073;-62
2024/04/09 11:17:46;;;;;;;1.63;0.20;;;14.10;66.70;;;;;;5301666;26;20536;-63
2024/04/09 11:20:20;;;;;;;0.20;0.10;;;14.10;66.70;;;;;;5301475;26;20393;-63
2024/04/09 11:22:50;;;;;;;0.10;0.10;;;14.10;66.60;;;;;;5304598;26;20350;-63
2024/04/09 11:25:19;;;;;;;0.52;0.13;;;14.10;66.40;;;;;;5300215;26;20015;-63
2024/04/09 11:27:48;;;;;;;9.30;0.50;;;14.20;66.00;;;;;;5300850;26;20001;-63
2024/04/09 11:30:28;;;;;;;1.20;0.22;;;14.20;65.70;;;;;;5302396;26;20287;-63
2024/04/09 11:32:55;;;;;;;0.20;0.10;;;14.20;66.20;;;;;;5301059;26;20005;-63
2024/04/09 11:35:23;;;;;;;2.28;0.30;;;14.20;65.80;;;;;;5301100;26;20013;-63
2024/04/09 11:37:53;;;;;;;3.47;0.20;;;14.20;65.70;;;;;;5298804;26;19998;-62
2024/04/09 11:40:37;;;;;;;0.82;0.10;;;14.20;65.00;;;;;;5302678;26;20002;-61
2024/04/09 11:43:03;;;;;;;2.65;0.25;;;14.20;65.10;;;;;;5290740;26;20012;-63
2024/04/09 11:45:30;;;;;;;0.00;0.00;;;14.20;64.50;;;;;;5298733;26;21652;-63
2024/04/09 11:47:57;;;;;;;0.15;0.03;;;14.20;64.50;;;;;;5300364;26;20024;-62
2024/04/09 11:50:24;;;;;;;1.55;0.10;;;14.20;64.40;;;;;;5304352;26;19994;-63
2024/04/09 11:52:50;;;;;;;0.20;0.00;;;14.10;64.50;;;;;;5306776;26;20006;-63
2024/04/09 11:55:16;;;;;;;0.03;0.00;;;14.10;64.30;;;;;;5302983;26;20518;-63
2024/04/09 11:57:42;;;;;;;0.10;0.10;;;14.10;64.10;;;;;;5300477;26;20048;-63
2024/04/09 12:00:12;;;;;;;0.45;0.10;;;14.00;64.10;;;;;;5302438;26;19998;-63
2024/04/09 12:02:49;;;;;;;0.20;0.10;;;14.00;64.30;;;;;;5302876;26;20016;-62
2024/04/09 12:05:14;;;;;;;7.05;0.68;;;13.90;64.80;;;;;;5303675;26;20005;-61
2024/04/09 12:07:41;;;;;;;1.10;0.30;;;13.80;64.80;;;;;;5304209;26;20015;-63
2024/04/09 12:10:08;;;;;;;1.58;0.60;;;13.80;64.70;;;;;;5304031;26;20013;-63
2024/04/09 12:12:34;;;;;;;1.00;0.20;;;13.80;64.80;;;;;;5305357;26;20002;-64
2024/04/09 12:15:01;;;;;;;0.88;0.30;;;13.80;65.20;;;;;;5307734;26;20461;-61
2024/04/09 12:17:27;;;;;;;0.17;0.08;;;13.80;65.90;;;;;;5305166;26;20001;-63
2024/04/09 12:19:53;;;;;;;0.40;0.30;;;13.70;66.10;;;;;;5305992;26;20345;-63
2024/04/09 12:22:19;;;;;;;1.65;0.20;;;13.70;66.10;;;;;;5304100;26;20025;-62
2024/04/09 12:24:45;;;;;;;0.30;0.30;;;13.70;66.80;;;;;;5307765;26;20345;-60
2024/04/09 12:27:11;;;;;;;0.30;0.30;;;13.60;67.00;;;;;;5308016;26;20042;-63
2024/04/09 12:29:36;;;;;;;0.17;0.10;;;13.60;67.30;;;;;;5309983;26;20041;-61
2024/04/09 12:32:03;;;;;;;0.30;0.10;;;13.60;68.60;;;;;;5331663;26;19997;-62
2024/04/09 12:34:30;;;;;;;1.38;0.10;;;13.50;69.20;;;;;;5338146;26;19997;-63
2024/04/09 12:36:56;;;;;;;0.10;0.00;;;13.40;69.80;;;;;;5337643;26;20001;-61
2024/04/09 12:39:24;;;;;;;0.22;0.00;;;13.30;70.70;;;;;;5338547;26;19992;-61
2024/04/09 12:41:51;;;;;;;0.00;0.00;;;13.10;70.60;;;;;;5339876;26;20017;-62